Stations météo

Publicité
Aix en Provence, France (7654): Température de l'air & dewpoint: 03.07.2020 17:00:00 - 09.07.2020 17:00:00 (CEST)Aix en Provence, France (7654): Vitesse du vent & gusts: 03.07.2020 17:00:00 - 09.07.2020 17:00:00 (CEST)Aix en Provence, France (7654): Direction du vent: 03.07.2020 17:00:00 - 09.07.2020 17:00:00 (CEST)Aix en Provence, France (7654): Quantités de précipitations: 03.07.2020 17:00:00 - 09.07.2020 17:00:00 (CEST)
Date & Time tt [°C] td [°C] ff [km/h] ff [knt] fx [km/h] fx [knt] dd rr [mm]
09.07.2020 17:00:00 - - - - - - - -
09.07.2020 16:00:00 31,6 12,9 8 4 22 12 SSW 0,0
09.07.2020 15:00:00 31,2 12,5 9 5 24 13 SW 0,0
09.07.2020 14:00:00 30,7 12,1 11 6 20 11 W 0,0
09.07.2020 13:00:00 29,4 10,5 6 4 21 12 SW 0,0
09.07.2020 12:00:00 28,4 11,0 5 3 23 12 SSW 0,0
09.07.2020 11:00:00 28,0 10,2 8 5 21 11 SSW 0,0
09.07.2020 10:00:00 26,6 12,3 4 2 13 7 SSE 0,0
09.07.2020 09:00:00 22,8 10,9 3 2 8 5 ESE 0,0
09.07.2020 08:00:00 18,8 9,3 3 2 8 5 E 0,0
09.07.2020 07:00:00 16,4 10,7 0 0 3 2 N 0,0
09.07.2020 06:00:00 14,9 9,7 0 0 3 2 N 0,0
09.07.2020 05:00:00 15,3 10,1 0 0 4 2 N 0,0
09.07.2020 04:00:00 16,0 10,5 0 0 4 2 N 0,0
09.07.2020 03:00:00 16,6 10,4 0 0 3 2 N 0,0
09.07.2020 02:00:00 17,6 11,2 0 0 5 3 N 0,0
09.07.2020 01:00:00 18,6 11,2 2 1 4 2 N 0,0
09.07.2020 00:00:00 19,8 10,8 0 0 5 3 N 0,0
08.07.2020 23:00:00 21,3 11,0 3 2 10 6 WNW 0,0
08.07.2020 22:00:00 23,2 11,3 5 3 14 7 W 0,0
08.07.2020 21:00:00 25,4 8,0 6 3 16 9 W 0,0
08.07.2020 20:00:00 28,2 6,9 6 4 20 11 SW 0,0
08.07.2020 19:00:00 29,5 6,8 10 5 23 13 SW 0,0
08.07.2020 18:00:00 29,5 6,2 13 7 26 14 SSW 0,0
08.07.2020 17:00:00 30,5 7,0 9 5 25 13 SSW 0,0
08.07.2020 16:00:00 29,9 8,3 11 6 33 18 SW 0,0
08.07.2020 15:00:00 30,1 9,6 15 8 32 17 WSW 0,0
08.07.2020 14:00:00 29,5 12,9 13 7 27 14 SSW 0,0
08.07.2020 13:00:00 28,9 13,6 14 7 31 17 SSW 0,0
08.07.2020 12:00:00 28,8 11,4 12 7 26 14 SSW 0,0
08.07.2020 11:00:00 27,8 10,5 5 3 15 8 W 0,0
08.07.2020 10:00:00 25,8 10,8 3 2 9 5 WSW 0,0
08.07.2020 09:00:00 24,1 11,1 0 0 4 2 N 0,0
08.07.2020 08:00:00 18,2 10,3 0 0 8 4 N 0,0
08.07.2020 07:00:00 16,5 10,1 0 0 4 2 N 0,0
08.07.2020 06:00:00 15,1 9,2 0 0 5 3 N 0,0
08.07.2020 05:00:00 15,6 9,5 3 1 4 2 N 0,0
08.07.2020 04:00:00 15,8 9,5 0 0 2 1 N 0,0
08.07.2020 03:00:00 16,0 9,2 0 0 4 2 N 0,0
08.07.2020 02:00:00 16,7 9,6 0 0 3 2 N 0,0
08.07.2020 01:00:00 17,9 9,3 2 1 5 3 N 0,0
08.07.2020 00:00:00 19,3 9,8 2 1 4 2 N 0,0
07.07.2020 23:00:00 20,9 9,5 0 0 5 3 N 0,0
07.07.2020 22:00:00 23,3 8,9 3 1 6 3 NW 0,0
07.07.2020 21:00:00 26,4 8,4 3 2 21 12 NNW 0,0
07.07.2020 20:00:00 29,1 8,2 10 6 24 13 W 0,0
07.07.2020 19:00:00 30,5 9,4 14 7 26 14 WNW 0,0
07.07.2020 18:00:00 31,0 9,2 11 6 26 14 W 0,0
07.07.2020 17:00:00 31,2 10,0 13 7 26 14 W 0,0
07.07.2020 16:00:00 30,7 10,1 11 6 29 16 W 0,0
07.07.2020 15:00:00 29,9 9,9 11 6 26 14 NW 0,0
07.07.2020 14:00:00 29,2 10,8 9 5 23 12 WNW 0,0
07.07.2020 13:00:00 28,4 9,6 8 5 21 12 WNW 0,0
07.07.2020 12:00:00 26,9 9,7 9 5 21 11 W 0,0
07.07.2020 11:00:00 25,1 9,4 10 5 20 11 WNW 0,0
07.07.2020 10:00:00 24,1 7,3 7 4 16 8 NW 0,0
07.07.2020 09:00:00 22,0 6,6 6 3 15 8 N 0,0
07.07.2020 08:00:00 18,1 6,9 4 2 8 4 WNW 0,0
07.07.2020 07:00:00 15,8 7,0 2 1 5 3 NNE 0,0
07.07.2020 06:00:00 15,5 5,7 0 0 11 6 N 0,0
07.07.2020 05:00:00 17,1 5,1 4 2 21 11 NW 0,0
07.07.2020 04:00:00 18,8 4,5 11 6 32 18 WNW 0,0
07.07.2020 03:00:00 19,5 4,8 15 8 - - WNW 0,0
07.07.2020 02:00:00 19,5 5,2 8 4 21 11 W 0,0
07.07.2020 01:00:00 20,5 4,9 7 4 49 26 SSW 0,0
07.07.2020 00:00:00 21,5 4,5 19 10 59 32 WNW 0,0
06.07.2020 23:00:00 22,5 4,0 21 12 69 37 NW 0,0
06.07.2020 22:00:00 23,5 4,9 36 20 68 37 NW 0,0
06.07.2020 21:00:00 24,7 6,0 26 14 61 33 NW 0,0
06.07.2020 20:00:00 26,4 7,9 31 17 69 37 NW 0,0
06.07.2020 19:00:00 28,2 9,0 27 15 66 36 NW 0,0
06.07.2020 18:00:00 28,6 10,7 26 14 62 34 NW 0,0
06.07.2020 17:00:00 29,5 12,0 22 12 55 30 NW 0,0
06.07.2020 16:00:00 29,7 13,5 31 17 64 35 WNW 0,0
06.07.2020 15:00:00 30,3 15,6 27 15 67 36 WNW 0,0
06.07.2020 14:00:00 30,6 16,2 15 8 51 28 NW 0,0
06.07.2020 13:00:00 29,5 15,2 18 10 45 24 NW 0,0
06.07.2020 12:00:00 28,6 16,2 20 11 39 21 NW 0,0
06.07.2020 11:00:00 28,0 16,0 15 8 33 18 NW 0,0
06.07.2020 10:00:00 27,0 15,4 18 10 31 17 WNW 0,0
06.07.2020 09:00:00 25,4 16,0 3 1 9 5 SSE 0,0
06.07.2020 08:00:00 21,7 14,6 3 2 7 4 SSE 0,0
06.07.2020 07:00:00 19,5 14,9 0 0 4 2 N 0,0
06.07.2020 06:00:00 18,3 14,2 0 0 7 4 N 0,0
06.07.2020 05:00:00 19,0 14,5 2 1 8 4 S 0,0
06.07.2020 04:00:00 19,6 14,8 0 0 5 3 N 0,0
06.07.2020 03:00:00 20,2 14,3 2 1 5 3 NNW 0,0
06.07.2020 02:00:00 21,4 15,7 2 1 8 4 NNE 0,0
06.07.2020 01:00:00 22,1 15,4 3 2 7 4 NE 0,0
06.07.2020 00:00:00 23,2 16,0 2 1 5 3 N 0,0
05.07.2020 23:00:00 24,4 15,3 0 0 5 3 N 0,0
05.07.2020 22:00:00 27,1 15,8 0 0 11 6 N 0,0
05.07.2020 21:00:00 29,9 15,2 5 3 20 11 W 0,0
05.07.2020 20:00:00 32,1 14,3 11 6 27 15 WNW 0,0
05.07.2020 19:00:00 33,0 15,5 13 7 29 16 W 0,0
05.07.2020 18:00:00 33,7 14,2 11 6 26 14 SW 0,0
05.07.2020 17:00:00 33,8 13,8 12 6 25 13 W 0,0
05.07.2020 16:00:00 33,4 13,5 4 2 27 14 NNW 0,0
05.07.2020 15:00:00 32,6 12,8 5 3 26 14 SSW 0,0
05.07.2020 14:00:00 31,3 13,1 6 3 18 10 E 0,0
05.07.2020 13:00:00 30,2 14,3 6 3 14 8 WNW 0,0
05.07.2020 12:00:00 28,7 12,2 7 4 17 9 NNW 0,0
05.07.2020 11:00:00 27,6 11,6 5 3 14 8 WSW 0,0
05.07.2020 10:00:00 25,1 12,0 4 2 11 6 SSE 0,0
05.07.2020 09:00:00 22,2 10,7 0 0 5 3 N 0,0
05.07.2020 08:00:00 18,2 9,5 0 0 9 5 N 0,0
05.07.2020 07:00:00 16,7 10,5 2 1 4 2 SSW 0,0
05.07.2020 06:00:00 15,2 9,3 0 0 3 2 N 0,0
05.07.2020 05:00:00 15,8 9,5 0 0 5 3 N 0,0
05.07.2020 04:00:00 16,6 9,5 0 0 5 3 N 0,0
05.07.2020 03:00:00 17,3 9,2 4 2 7 4 NNE 0,0
05.07.2020 02:00:00 17,9 9,5 3 2 6 3 NNW 0,0
05.07.2020 01:00:00 18,9 9,1 0 0 6 4 N 0,0
05.07.2020 00:00:00 20,3 9,2 3 1 7 4 N 0,0
04.07.2020 23:00:00 21,4 9,3 3 2 11 6 WNW 0,0
04.07.2020 22:00:00 24,1 8,9 3 2 13 7 ENE 0,0
04.07.2020 21:00:00 26,5 8,9 2 1 22 12 WSW 0,0
04.07.2020 20:00:00 28,9 10,5 9 5 32 17 W 0,0
04.07.2020 19:00:00 29,6 11,2 14 7 32 17 NW 0,0
04.07.2020 18:00:00 29,7 11,2 14 7 32 17 WNW 0,0
04.07.2020 17:00:00 30,5 12,4 11 6 30 16 WNW 0,0
04.07.2020 16:00:00 30,1 13,0 8 4 26 14 NW 0,0
04.07.2020 15:00:00 29,1 11,2 10 5 24 13 NNW 0,0
04.07.2020 14:00:00 28,6 12,1 9 5 22 12 WNW 0,0
04.07.2020 13:00:00 27,8 13,0 7 4 22 12 W 0,0
04.07.2020 12:00:00 26,5 11,4 7 4 18 10 NW 0,0
04.07.2020 11:00:00 25,0 11,5 4 2 12 6 W 0,0
04.07.2020 10:00:00 23,3 11,7 4 2 10 6 SSW 0,0
04.07.2020 09:00:00 20,9 10,7 4 2 8 4 S 0,0
04.07.2020 08:00:00 17,2 9,9 0 0 8 4 N 0,0
04.07.2020 07:00:00 16,2 10,3 2 1 7 4 WNW 0,0
04.07.2020 06:00:00 14,7 9,7 3 2 6 4 NE 0,0
04.07.2020 05:00:00 15,0 9,8 2 1 6 3 NE 0,0
04.07.2020 04:00:00 15,5 9,8 0 0 5 3 N 0,0
04.07.2020 03:00:00 16,1 9,5 3 2 5 3 NNW 0,0
04.07.2020 02:00:00 17,6 9,5 0 0 6 3 N 0,0
04.07.2020 01:00:00 19,4 8,4 3 2 9 5 WNW 0,0
04.07.2020 00:00:00 20,6 8,2 0 0 28 15 N 0,0
03.07.2020 23:00:00 21,7 8,6 14 7 32 17 NNW 0,0
03.07.2020 22:00:00 22,4 9,2 14 7 36 20 NW 0,0
03.07.2020 21:00:00 23,5 9,5 18 10 46 25 NW 0,0
03.07.2020 20:00:00 25,0 9,3 20 11 46 25 NW 0,0
03.07.2020 19:00:00 26,2 9,9 17 9 53 28 NW 0,0
03.07.2020 18:00:00 26,4 9,7 24 13 55 30 NW 0,0
03.07.2020 17:00:00 26,3 9,2 28 15 59 32 WNW 0,0

tt = Température de l'air
td = dewpoint
ff = Vitesse du vent
fx = gusts
dd = Direction du vent
rr = Quantités de précipitations

stations d'obs. à proximité